National Weather Service United States Department of Commerce

Airport Observations and Forecasts (from NWS CLE)

Cleveland Hopkins International Airport

 

FAA details


623
FTUS41 KCLE 240536
TAFCLE
TAF
KCLE 240536Z 2406/2512 10005KT P6SM SCT250
FM241500 13009KT P6SM OVC045
FM241800 15011KT P6SM OVC030
FM242000 15012KT 6SM -SHRA BR OVC015
FM250800 17015G25KT 5SM -SHRA OVC015=

24 hours of observations

7-day forecast

Hourly - Tabular forecast  Hourly - Graph forecast

Terminal Information Board

Toledo Express Airport

 

FAA details


044
FTUS41 KCLE 240536
TAFTOL
TAF
KTOL 240536Z 2406/2506 07004KT P6SM FEW250
FM241400 10006KT P6SM BKN050
FM241600 10007KT P6SM OVC010
FM242000 13008KT P6SM -SHRA OVC008
FM250500 17009KT 4SM -SHRA BR OVC008=

24 hours of observations

7-day forecast

Hourly - Tabular forecast  Hourly - Graph forecast

Terminal Information Board

Findlay Airport

 

FAA details


043
FTUS41 KCLE 240536
TAFFDY
TAF
KFDY 240536Z 2406/2506 08006KT P6SM SCT250
FM241300 11006KT P6SM BKN050
FM241700 14009KT P6SM OVC010
FM242000 15009KT 3SM -SHRA BR OVC020
FM250500 18012KT 3SM -SHRA BR OVC010=

24 hours of observations

7-day forecast

Hourly - Tabular forecast   Hourly - Graph forecast

Terminal Information Board

Mansfield Lahm Airport

 

FAA details


042
FTUS41 KCLE 240536
TAFMFD
TAF
KMFD 240536Z 2406/2506 09004KT P6SM SCT250
FM241200 12006KT P6SM BKN008
FM241900 14009KT P6SM -SHRA OVC008
FM250000 14012KT 1 1/2SM -SHRA BR OVC008
FM250500 16013KT 4SM -SHRA BR OVC010=

24 hours of observations

7-day forecast

Hourly - Tabular forecast   Hourly - Graph forecast

Terminal Information Board

Akron-Canton Airport

 

FAA details


620
FTUS41 KCLE 240536
TAFCAK
TAF
KCAK 240536Z 2406/2506 08005KT P6SM BKN200
FM241200 11007KT P6SM BKN060
FM241400 13008KT P6SM OVC025
FM241900 15010KT 6SM -SHRA BR OVC015
FM250500 15012KT 5SM -SHRA BR OVC015=

24 hours of observations

7-day forecast

Hourly - Tabular forecast   Hourly - Graph forecast

Terminal Information Board

Youngstown-Warren Regional Airport

 

FAA details


619
FTUS41 KCLE 240536
TAFYNG
TAF
KYNG 240536Z 2406/2506 09005KT P6SM SCT250
FM241500 13010KT P6SM OVC045
FM242000 14011KT 6SM -SHRA BR OVC020
FM242200 14011KT 4SM -SHRA BR OVC015
FM250200 14014KT 4SM -SHRA BR OVC008=

24 hours of observations

7-day forecast

Hourly - Tabular forecast   Hourly - Graph forecast

Terminal Information Board

Erie International Airport

 

FAA details


622
FTUS41 KCLE 240536
TAFERI
TAF
KERI 240536Z 2406/2506 12008KT P6SM FEW250
FM241900 14014KT P6SM OVC070
FM242100 14017G25KT P6SM VCSH OVC030
FM242300 15020G30KT P6SM VCSH OVC025
FM250200 15020G30KT 6SM -SHRA BR OVC020=

24 hours of observations

7-day forecast

Hourly - Tabular Forecast  Hourly - Graph forecast

Terminal Information Board

The National Weather Service is Cleveland is responsible for the Terminal Areodome Forecasts for seven area airports in northern Ohio and northwest Pennsylvania.  Routine issuance times are by 00Z, 06Z, 12Z, and 18Z with amendments, as needed.

Latest Surface Analysis

Additional Current Conditions

Satellite

Radar
 
 

 

Center Weather Service Unit, Oberlin/ZOB

CWA/MIS    

 

The National Weather Service Center Weather Service Unit in Oberlin is responsible for the airspace above northern Ohio and northwest Pennsylvania and ajoining areas.

 

Aviaiton Weather Center National, AWC

AIRMETS & SIGMETS